<?xml version="1.0" encoding="UTF-8" standalone="no" ?><gpx xmlns="http://www.topografix.com/GPX/1/1" xmlns:gpxx="http://www.garmin.com/xmlschemas/GpxExtensions/v3" xmlns:wptx1="http://www.garmin.com/xmlschemas/WaypointExtension/v1" xmlns:gpxtpx="http://www.garmin.com/xmlschemas/TrackPointExtension/v1" creator="GuideVTT.com" version="1.1" xmlns:xsi="http://www.w3.org/2001/XMLSchema-instance" xsi:schemaLocation="http://www.topografix.com/GPX/1/1 http://www.topografix.com/GPX/1/1/gpx.xsd http://www.garmin.com/xmlschemas/GpxExtensions/v3 http://www8.garmin.com/xmlschemas/GpxExtensionsv3.xsd http://www.garmin.com/xmlschemas/WaypointExtension/v1 http://www8.garmin.com/xmlschemas/WaypointExtensionv1.xsd http://www.garmin.com/xmlschemas/TrackPointExtension/v1 http://www.garmin.com/xmlschemas/TrackPointExtensionv1.xsd">
<metadata><link href="http://www.garmin.com"><text>Garmin International</text></link><time>2013-06-22T15:13:50Z</time></metadata>
<trk><name>rp_vtt_2012_01.gpx</name><extensions><gpxx:TrackExtension><gpxx:DisplayColor>Cyan</gpxx:DisplayColor></gpxx:TrackExtension></extensions><trkseg>
<trkpt lat="46.494462490" lon="6.709449291"><ele></ele><time>2013-8-18T8:38:46Z</time></trkpt>
<trkpt lat="46.494441032" lon="6.709384918"><ele></ele><time>2013-8-18T8:38:49Z</time></trkpt>
<trkpt lat="46.494462490" lon="6.709384918"><ele></ele><time>2013-8-18T8:38:52Z</time></trkpt>
<trkpt lat="46.494419575" lon="6.709427834"><ele></ele><time>2013-8-18T8:38:55Z</time></trkpt>
<trkpt lat="46.494441032" lon="6.709427834"><ele></ele><time>2013-8-18T8:38:58Z</time></trkpt>
<trkpt lat="46.494612694" lon="6.709105968"><ele></ele><time>2013-8-18T8:39:1Z</time></trkpt>
<trkpt lat="46.494741440" lon="6.708934307"><ele></ele><time>2013-8-18T8:39:4Z</time></trkpt>
<trkpt lat="46.494870186" lon="6.709084511"><ele></ele><time>2013-8-18T8:39:7Z</time></trkpt>
<trkpt lat="46.494934559" lon="6.709213257"><ele></ele><time>2013-8-18T8:39:10Z</time></trkpt>
<trkpt lat="46.494934559" lon="6.709320545"><ele></ele><time>2013-8-18T8:39:13Z</time></trkpt>
<trkpt lat="46.494698524" lon="6.709878445"><ele></ele><time>2013-8-18T8:39:16Z</time></trkpt>
<trkpt lat="46.494483948" lon="6.710221767"><ele></ele><time>2013-8-18T8:39:19Z</time></trkpt>
<trkpt lat="46.493539810" lon="6.710994244"><ele></ele><time>2013-8-18T8:39:22Z</time></trkpt>
<trkpt lat="46.493217945" lon="6.711487770"><ele></ele><time>2013-8-18T8:39:25Z</time></trkpt>
<trkpt lat="46.493110657" lon="6.711723804"><ele></ele><time>2013-8-18T8:39:28Z</time></trkpt>
<trkpt lat="46.492874622" lon="6.712088585"><ele></ele><time>2013-8-18T8:39:31Z</time></trkpt>
<trkpt lat="46.492466927" lon="6.712517738"><ele></ele><time>2013-8-18T8:39:34Z</time></trkpt>
<trkpt lat="46.492209435" lon="6.712882519"><ele></ele><time>2013-8-18T8:39:37Z</time></trkpt>
<trkpt lat="46.492016315" lon="6.713311672"><ele></ele><time>2013-8-18T8:39:40Z</time></trkpt>
<trkpt lat="46.491973400" lon="6.714320183"><ele></ele><time>2013-8-18T8:39:43Z</time></trkpt>
<trkpt lat="46.491715908" lon="6.715414524"><ele></ele><time>2013-8-18T8:39:46Z</time></trkpt>
<trkpt lat="46.491265297" lon="6.716251373"><ele></ele><time>2013-8-18T8:39:49Z</time></trkpt>
<trkpt lat="46.490857601" lon="6.716809273"><ele></ele><time>2013-8-18T8:39:52Z</time></trkpt>
<trkpt lat="46.490643024" lon="6.717174053"><ele></ele><time>2013-8-18T8:39:55Z</time></trkpt>
<trkpt lat="46.489827633" lon="6.717967987"><ele></ele><time>2013-8-18T8:39:58Z</time></trkpt>
<trkpt lat="46.489419937" lon="6.718633175"><ele></ele><time>2013-8-18T8:40:1Z</time></trkpt>
<trkpt lat="46.489076614" lon="6.719276905"><ele></ele><time>2013-8-18T8:40:4Z</time></trkpt>
<trkpt lat="46.488518715" lon="6.720178127"><ele></ele><time>2013-8-18T8:40:7Z</time></trkpt>
<trkpt lat="46.488239765" lon="6.720907688"><ele></ele><time>2013-8-18T8:40:10Z</time></trkpt>
<trkpt lat="46.488153934" lon="6.721508503"><ele></ele><time>2013-8-18T8:40:13Z</time></trkpt>
<trkpt lat="46.488196850" lon="6.722023487"><ele></ele><time>2013-8-18T8:40:16Z</time></trkpt>
<trkpt lat="46.488239765" lon="6.723525524"><ele></ele><time>2013-8-18T8:40:19Z</time></trkpt>
<trkpt lat="46.488389969" lon="6.724147797"><ele></ele><time>2013-8-18T8:40:22Z</time></trkpt>
<trkpt lat="46.488389969" lon="6.725091934"><ele></ele><time>2013-8-18T8:40:25Z</time></trkpt>
<trkpt lat="46.488261223" lon="6.725521088"><ele></ele><time>2013-8-18T8:40:28Z</time></trkpt>
<trkpt lat="46.488454342" lon="6.726078987"><ele></ele><time>2013-8-18T8:40:31Z</time></trkpt>
<trkpt lat="46.488518715" lon="6.726379395"><ele></ele><time>2013-8-18T8:40:34Z</time></trkpt>
<trkpt lat="46.488754749" lon="6.726894379"><ele></ele><time>2013-8-18T8:40:37Z</time></trkpt>
<trkpt lat="46.489033699" lon="6.726894379"><ele></ele><time>2013-8-18T8:40:40Z</time></trkpt>
<trkpt lat="46.489076614" lon="6.727023125"><ele></ele><time>2013-8-18T8:40:43Z</time></trkpt>
<trkpt lat="46.488990784" lon="6.727473736"><ele></ele><time>2013-8-18T8:40:46Z</time></trkpt>
<trkpt lat="46.489226818" lon="6.728653908"><ele></ele><time>2013-8-18T8:40:49Z</time></trkpt>
<trkpt lat="46.489806175" lon="6.730370522"><ele></ele><time>2013-8-18T8:40:52Z</time></trkpt>
<trkpt lat="46.490299702" lon="6.731700897"><ele></ele><time>2013-8-18T8:40:55Z</time></trkpt>
<trkpt lat="46.490771770" lon="6.733675003"><ele></ele><time>2013-8-18T8:40:58Z</time></trkpt>
<trkpt lat="46.490964890" lon="6.734275818"><ele></ele><time>2013-8-18T8:41:1Z</time></trkpt>
<trkpt lat="46.491115093" lon="6.735198498"><ele></ele><time>2013-8-18T8:41:4Z</time></trkpt>
<trkpt lat="46.491265297" lon="6.735584736"><ele></ele><time>2013-8-18T8:41:7Z</time></trkpt>
<trkpt lat="46.491329670" lon="6.736679077"><ele></ele><time>2013-8-18T8:41:10Z</time></trkpt>
<trkpt lat="46.491329670" lon="6.737408638"><ele></ele><time>2013-8-18T8:41:13Z</time></trkpt>
<trkpt lat="46.491093636" lon="6.738996506"><ele></ele><time>2013-8-18T8:41:16Z</time></trkpt>
<trkpt lat="46.491158009" lon="6.739275455"><ele></ele><time>2013-8-18T8:41:19Z</time></trkpt>
<trkpt lat="46.491394043" lon="6.739683151"><ele></ele><time>2013-8-18T8:41:22Z</time></trkpt>
<trkpt lat="46.491479874" lon="6.739940643"><ele></ele><time>2013-8-18T8:41:25Z</time></trkpt>
<trkpt lat="46.491501331" lon="6.740670204"><ele></ele><time>2013-8-18T8:41:28Z</time></trkpt>
<trkpt lat="46.491544247" lon="6.740949154"><ele></ele><time>2013-8-18T8:41:31Z</time></trkpt>
<trkpt lat="46.491630077" lon="6.741163731"><ele></ele><time>2013-8-18T8:41:34Z</time></trkpt>
<trkpt lat="46.491715908" lon="6.741549969"><ele></ele><time>2013-8-18T8:41:37Z</time></trkpt>
<trkpt lat="46.491930485" lon="6.742880344"><ele></ele><time>2013-8-18T8:41:40Z</time></trkpt>
<trkpt lat="46.491951942" lon="6.743245125"><ele></ele><time>2013-8-18T8:41:43Z</time></trkpt>
<trkpt lat="46.491930485" lon="6.743652821"><ele></ele><time>2013-8-18T8:41:46Z</time></trkpt>
<trkpt lat="46.491458416" lon="6.743996143"><ele></ele><time>2013-8-18T8:41:49Z</time></trkpt>
<trkpt lat="46.491372585" lon="6.744318008"><ele></ele><time>2013-8-18T8:41:52Z</time></trkpt>
<trkpt lat="46.491179466" lon="6.744639874"><ele></ele><time>2013-8-18T8:41:55Z</time></trkpt>
<trkpt lat="46.490857601" lon="6.744768620"><ele></ele><time>2013-8-18T8:41:58Z</time></trkpt>
<trkpt lat="46.490750313" lon="6.744983196"><ele></ele><time>2013-8-18T8:42:1Z</time></trkpt>
<trkpt lat="46.490685940" lon="6.745562553"><ele></ele><time>2013-8-18T8:42:4Z</time></trkpt>
<trkpt lat="46.490621567" lon="6.745862961"><ele></ele><time>2013-8-18T8:42:7Z</time></trkpt>
<trkpt lat="46.489999294" lon="6.747000217"><ele></ele><time>2013-8-18T8:42:10Z</time></trkpt>
<trkpt lat="46.489613056" lon="6.748051643"><ele></ele><time>2013-8-18T8:42:13Z</time></trkpt>
<trkpt lat="46.489441395" lon="6.748995781"><ele></ele><time>2013-8-18T8:42:16Z</time></trkpt>
<trkpt lat="46.489419937" lon="6.749296188"><ele></ele><time>2013-8-18T8:42:19Z</time></trkpt>
<trkpt lat="46.489312649" lon="6.749532223"><ele></ele><time>2013-8-18T8:42:22Z</time></trkpt>
<trkpt lat="46.488969326" lon="6.749918461"><ele></ele><time>2013-8-18T8:42:25Z</time></trkpt>
<trkpt lat="46.488626003" lon="6.750240326"><ele></ele><time>2013-8-18T8:42:28Z</time></trkpt>
<trkpt lat="46.488368511" lon="6.750798225"><ele></ele><time>2013-8-18T8:42:31Z</time></trkpt>
<trkpt lat="46.488325596" lon="6.751163006"><ele></ele><time>2013-8-18T8:42:34Z</time></trkpt>
<trkpt lat="46.487789154" lon="6.752386093"><ele></ele><time>2013-8-18T8:42:37Z</time></trkpt>
<trkpt lat="46.486909389" lon="6.753952503"><ele></ele><time>2013-8-18T8:42:40Z</time></trkpt>
<trkpt lat="46.486673355" lon="6.754295826"><ele></ele><time>2013-8-18T8:42:43Z</time></trkpt>
<trkpt lat="46.485922337" lon="6.755003929"><ele></ele><time>2013-8-18T8:42:46Z</time></trkpt>
<trkpt lat="46.485664845" lon="6.755433083"><ele></ele><time>2013-8-18T8:42:49Z</time></trkpt>
<trkpt lat="46.485278606" lon="6.756312847"><ele></ele><time>2013-8-18T8:42:52Z</time></trkpt>
<trkpt lat="46.484956741" lon="6.756742001"><ele></ele><time>2013-8-18T8:42:55Z</time></trkpt>
<trkpt lat="46.484656334" lon="6.757256985"><ele></ele><time>2013-8-18T8:42:58Z</time></trkpt>
<trkpt lat="46.484184265" lon="6.757900715"><ele></ele><time>2013-8-18T8:43:1Z</time></trkpt>
<trkpt lat="46.483948231" lon="6.758093834"><ele></ele><time>2013-8-18T8:43:4Z</time></trkpt>
<trkpt lat="46.482446194" lon="6.759896278"><ele></ele><time>2013-8-18T8:43:7Z</time></trkpt>
<trkpt lat="46.482059956" lon="6.760282516"><ele></ele><time>2013-8-18T8:43:10Z</time></trkpt>
<trkpt lat="46.481716633" lon="6.760840416"><ele></ele><time>2013-8-18T8:43:13Z</time></trkpt>
<trkpt lat="46.481566429" lon="6.761205196"><ele></ele><time>2013-8-18T8:43:16Z</time></trkpt>
<trkpt lat="46.481158733" lon="6.761870384"><ele></ele><time>2013-8-18T8:43:19Z</time></trkpt>
<trkpt lat="46.480729580" lon="6.762728691"><ele></ele><time>2013-8-18T8:43:22Z</time></trkpt>
<trkpt lat="46.480515003" lon="6.763243675"><ele></ele><time>2013-8-18T8:43:25Z</time></trkpt>
<trkpt lat="46.480085850" lon="6.763823032"><ele></ele><time>2013-8-18T8:43:28Z</time></trkpt>
<trkpt lat="46.479763985" lon="6.764552593"><ele></ele><time>2013-8-18T8:43:31Z</time></trkpt>
<trkpt lat="46.479592323" lon="6.765282154"><ele></ele><time>2013-8-18T8:43:34Z</time></trkpt>
<trkpt lat="46.479141712" lon="6.766505241"><ele></ele><time>2013-8-18T8:43:37Z</time></trkpt>
<trkpt lat="46.478862762" lon="6.767127514"><ele></ele><time>2013-8-18T8:43:40Z</time></trkpt>
<trkpt lat="46.478648186" lon="6.767728329"><ele></ele><time>2013-8-18T8:43:43Z</time></trkpt>
<trkpt lat="46.478240490" lon="6.769552231"><ele></ele><time>2013-8-18T8:43:46Z</time></trkpt>
<trkpt lat="46.478047371" lon="6.770024300"><ele></ele><time>2013-8-18T8:43:49Z</time></trkpt>
<trkpt lat="46.477897167" lon="6.770603657"><ele></ele><time>2013-8-18T8:43:52Z</time></trkpt>
<trkpt lat="46.477725506" lon="6.771118641"><ele></ele><time>2013-8-18T8:43:55Z</time></trkpt>
<trkpt lat="46.477403641" lon="6.771612167"><ele></ele><time>2013-8-18T8:43:58Z</time></trkpt>
<trkpt lat="46.477167606" lon="6.772534847"><ele></ele><time>2013-8-18T8:44:1Z</time></trkpt>
<trkpt lat="46.477081776" lon="6.773006916"><ele></ele><time>2013-8-18T8:44:4Z</time></trkpt>
<trkpt lat="46.476674080" lon="6.774122715"><ele></ele><time>2013-8-18T8:44:7Z</time></trkpt>
<trkpt lat="46.476502419" lon="6.774680614"><ele></ele><time>2013-8-18T8:44:10Z</time></trkpt>
<trkpt lat="46.476352215" lon="6.774916649"><ele></ele><time>2013-8-18T8:44:13Z</time></trkpt>
<trkpt lat="46.476180553" lon="6.775538921"><ele></ele><time>2013-8-18T8:44:16Z</time></trkpt>
<trkpt lat="46.476073265" lon="6.776268482"><ele></ele><time>2013-8-18T8:44:19Z</time></trkpt>
<trkpt lat="46.475965977" lon="6.776697636"><ele></ele><time>2013-8-18T8:44:22Z</time></trkpt>
<trkpt lat="46.476116180" lon="6.777083874"><ele></ele><time>2013-8-18T8:44:25Z</time></trkpt>
<trkpt lat="46.476159096" lon="6.777105331"><ele></ele><time>2013-8-18T8:44:28Z</time></trkpt>
<trkpt lat="46.476287842" lon="6.777384281"><ele></ele><time>2013-8-18T8:44:31Z</time></trkpt>
<trkpt lat="46.476030350" lon="6.777770519"><ele></ele><time>2013-8-18T8:44:34Z</time></trkpt>
<trkpt lat="46.476330757" lon="6.778349876"><ele></ele><time>2013-8-18T8:44:37Z</time></trkpt>
<trkpt lat="46.476416588" lon="6.778607368"><ele></ele><time>2013-8-18T8:44:40Z</time></trkpt>
<trkpt lat="46.476459503" lon="6.778650284"><ele></ele><time>2013-8-18T8:44:43Z</time></trkpt>
<trkpt lat="46.476845741" lon="6.778521538"><ele></ele><time>2013-8-18T8:44:46Z</time></trkpt>
<trkpt lat="46.476953030" lon="6.778542995"><ele></ele><time>2013-8-18T8:44:49Z</time></trkpt>
<trkpt lat="46.476953030" lon="6.778757572"><ele></ele><time>2013-8-18T8:44:52Z</time></trkpt>
<trkpt lat="46.477038860" lon="6.779015064"><ele></ele><time>2013-8-18T8:44:55Z</time></trkpt>
<trkpt lat="46.477167606" lon="6.779787540"><ele></ele><time>2013-8-18T8:44:58Z</time></trkpt>
<trkpt lat="46.477189064" lon="6.780538559"><ele></ele><time>2013-8-18T8:45:1Z</time></trkpt>
<trkpt lat="46.477038860" lon="6.781203747"><ele></ele><time>2013-8-18T8:45:4Z</time></trkpt>
<trkpt lat="46.476223469" lon="6.782684326"><ele></ele><time>2013-8-18T8:45:7Z</time></trkpt>
<trkpt lat="46.475858688" lon="6.783242226"><ele></ele><time>2013-8-18T8:45:10Z</time></trkpt>
<trkpt lat="46.475665569" lon="6.784121990"><ele></ele><time>2013-8-18T8:45:13Z</time></trkpt>
<trkpt lat="46.475450993" lon="6.784765720"><ele></ele><time>2013-8-18T8:45:16Z</time></trkpt>
<trkpt lat="46.475343704" lon="6.785001755"><ele></ele><time>2013-8-18T8:45:19Z</time></trkpt>
<trkpt lat="46.475429535" lon="6.785345078"><ele></ele><time>2013-8-18T8:45:22Z</time></trkpt>
<trkpt lat="46.475708485" lon="6.785602570"><ele></ele><time>2013-8-18T8:45:25Z</time></trkpt>
<trkpt lat="46.475837231" lon="6.786010265"><ele></ele><time>2013-8-18T8:45:28Z</time></trkpt>
<trkpt lat="46.475772858" lon="6.787405014"><ele></ele><time>2013-8-18T8:45:31Z</time></trkpt>
<trkpt lat="46.475644112" lon="6.787898540"><ele></ele><time>2013-8-18T8:45:34Z</time></trkpt>
<trkpt lat="46.475601196" lon="6.788713932"><ele></ele><time>2013-8-18T8:45:37Z</time></trkpt>
<trkpt lat="46.475472450" lon="6.789228916"><ele></ele><time>2013-8-18T8:45:40Z</time></trkpt>
<trkpt lat="46.475214958" lon="6.789937019"><ele></ele><time>2013-8-18T8:45:43Z</time></trkpt>
<trkpt lat="46.475043297" lon="6.790258884"><ele></ele><time>2013-8-18T8:45:46Z</time></trkpt>
<trkpt lat="46.474699974" lon="6.791481972"><ele></ele><time>2013-8-18T8:45:49Z</time></trkpt>
<trkpt lat="46.474657059" lon="6.791911125"><ele></ele><time>2013-8-18T8:45:52Z</time></trkpt>
<trkpt lat="46.474442482" lon="6.792919636"><ele></ele><time>2013-8-18T8:45:55Z</time></trkpt>
<trkpt lat="46.474313736" lon="6.793756485"><ele></ele><time>2013-8-18T8:45:58Z</time></trkpt>
<trkpt lat="46.474313736" lon="6.794078350"><ele></ele><time>2013-8-18T8:46:1Z</time></trkpt>
<trkpt lat="46.474270821" lon="6.794035435"><ele></ele><time>2013-8-18T8:46:4Z</time></trkpt>
<trkpt lat="46.474378109" lon="6.793863773"><ele></ele><time>2013-8-18T8:46:7Z</time></trkpt>
<trkpt lat="46.474678516" lon="6.793177128"><ele></ele><time>2013-8-18T8:46:10Z</time></trkpt>
<trkpt lat="46.474978924" lon="6.792833805"><ele></ele><time>2013-8-18T8:46:13Z</time></trkpt>
<trkpt lat="46.475064754" lon="6.792597771"><ele></ele><time>2013-8-18T8:46:16Z</time></trkpt>
<trkpt lat="46.475107670" lon="6.792597771"><ele></ele><time>2013-8-18T8:46:19Z</time></trkpt>
<trkpt lat="46.475129128" lon="6.792640686"><ele></ele><time>2013-8-18T8:46:22Z</time></trkpt>
<trkpt lat="46.475086212" lon="6.792962551"><ele></ele><time>2013-8-18T8:46:25Z</time></trkpt>
<trkpt lat="46.474506855" lon="6.794443130"><ele></ele><time>2013-8-18T8:46:28Z</time></trkpt>
<trkpt lat="46.474313736" lon="6.795430183"><ele></ele><time>2013-8-18T8:46:31Z</time></trkpt>
<trkpt lat="46.474335194" lon="6.795859337"><ele></ele><time>2013-8-18T8:46:34Z</time></trkpt>
<trkpt lat="46.474184990" lon="6.796181202"><ele></ele><time>2013-8-18T8:46:37Z</time></trkpt>
<trkpt lat="46.473884583" lon="6.797189713"><ele></ele><time>2013-8-18T8:46:40Z</time></trkpt>
<trkpt lat="46.473777294" lon="6.798219681"><ele></ele><time>2013-8-18T8:46:43Z</time></trkpt>
<trkpt lat="46.473777294" lon="6.798305511"><ele></ele><time>2013-8-18T8:46:46Z</time></trkpt>
<trkpt lat="46.473863125" lon="6.798563004"><ele></ele><time>2013-8-18T8:46:49Z</time></trkpt>
<trkpt lat="46.474099159" lon="6.798927784"><ele></ele><time>2013-8-18T8:46:52Z</time></trkpt>
<trkpt lat="46.474077702" lon="6.799099445"><ele></ele><time>2013-8-18T8:46:55Z</time></trkpt>
<trkpt lat="46.474184990" lon="6.799850464"><ele></ele><time>2013-8-18T8:46:58Z</time></trkpt>
<trkpt lat="46.474142075" lon="6.800043583"><ele></ele><time>2013-8-18T8:47:1Z</time></trkpt>
<trkpt lat="46.473991871" lon="6.800408363"><ele></ele><time>2013-8-18T8:47:4Z</time></trkpt>
<trkpt lat="46.473906040" lon="6.800880432"><ele></ele><time>2013-8-18T8:47:7Z</time></trkpt>
<trkpt lat="46.473841667" lon="6.802704334"><ele></ele><time>2013-8-18T8:47:10Z</time></trkpt>
<trkpt lat="46.473884583" lon="6.803283691"><ele></ele><time>2013-8-18T8:47:13Z</time></trkpt>
<trkpt lat="46.473798752" lon="6.803691387"><ele></ele><time>2013-8-18T8:47:16Z</time></trkpt>
<trkpt lat="46.473691463" lon="6.804528236"><ele></ele><time>2013-8-18T8:47:19Z</time></trkpt>
<trkpt lat="46.473519802" lon="6.805322170"><ele></ele><time>2013-8-18T8:47:22Z</time></trkpt>
<trkpt lat="46.473541260" lon="6.805558205"><ele></ele><time>2013-8-18T8:47:25Z</time></trkpt>
<trkpt lat="46.473863125" lon="6.805794239"><ele></ele><time>2013-8-18T8:47:28Z</time></trkpt>
<trkpt lat="46.473906040" lon="6.805880070"><ele></ele><time>2013-8-18T8:47:31Z</time></trkpt>
<trkpt lat="46.473884583" lon="6.805837154"><ele></ele><time>2013-8-18T8:47:34Z</time></trkpt>
<trkpt lat="46.473884583" lon="6.805880070"><ele></ele><time>2013-8-18T8:47:37Z</time></trkpt>
<trkpt lat="46.473927498" lon="6.806309223"><ele></ele><time>2013-8-18T8:47:40Z</time></trkpt>
<trkpt lat="46.473798752" lon="6.807060242"><ele></ele><time>2013-8-18T8:47:43Z</time></trkpt>
<trkpt lat="46.473906040" lon="6.807296276"><ele></ele><time>2013-8-18T8:47:46Z</time></trkpt>
<trkpt lat="46.473970413" lon="6.808068752"><ele></ele><time>2013-8-18T8:47:49Z</time></trkpt>
<trkpt lat="46.474142075" lon="6.808240414"><ele></ele><time>2013-8-18T8:47:52Z</time></trkpt>
<trkpt lat="46.474270821" lon="6.808497906"><ele></ele><time>2013-8-18T8:47:55Z</time></trkpt>
<trkpt lat="46.474335194" lon="6.808862686"><ele></ele><time>2013-8-18T8:47:58Z</time></trkpt>
<trkpt lat="46.474442482" lon="6.809999943"><ele></ele><time>2013-8-18T8:48:1Z</time></trkpt>
<trkpt lat="46.474463940" lon="6.810557842"><ele></ele><time>2013-8-18T8:48:4Z</time></trkpt>
<trkpt lat="46.474549770" lon="6.811008453"><ele></ele><time>2013-8-18T8:48:7Z</time></trkpt>
<trkpt lat="46.474699974" lon="6.811330318"><ele></ele><time>2013-8-18T8:48:10Z</time></trkpt>
<trkpt lat="46.474764347" lon="6.811544895"><ele></ele><time>2013-8-18T8:48:13Z</time></trkpt>
<trkpt lat="46.474785805" lon="6.811501980"><ele></ele><time>2013-8-18T8:48:16Z</time></trkpt>
<trkpt lat="46.474785805" lon="6.810836792"><ele></ele><time>2013-8-18T8:48:19Z</time></trkpt>
<trkpt lat="46.474742889" lon="6.809206009"><ele></ele><time>2013-8-18T8:48:22Z</time></trkpt>
<trkpt lat="46.474807262" lon="6.807811260"><ele></ele><time>2013-8-18T8:48:25Z</time></trkpt>
<trkpt lat="46.474914551" lon="6.807682514"><ele></ele><time>2013-8-18T8:48:28Z</time></trkpt>
<trkpt lat="46.475086212" lon="6.807618141"><ele></ele><time>2013-8-18T8:48:31Z</time></trkpt>
<trkpt lat="46.475107670" lon="6.807618141"><ele></ele><time>2013-8-18T8:48:34Z</time></trkpt>
<trkpt lat="46.475172043" lon="6.807703972"><ele></ele><time>2013-8-18T8:48:37Z</time></trkpt>
<trkpt lat="46.475236416" lon="6.808218956"><ele></ele><time>2013-8-18T8:48:40Z</time></trkpt>
<trkpt lat="46.475343704" lon="6.808691025"><ele></ele><time>2013-8-18T8:48:43Z</time></trkpt>
<trkpt lat="46.475536823" lon="6.809120178"><ele></ele><time>2013-8-18T8:48:46Z</time></trkpt>
<trkpt lat="46.475622654" lon="6.809506416"><ele></ele><time>2013-8-18T8:48:49Z</time></trkpt>
<trkpt lat="46.475386620" lon="6.808755398"><ele></ele><time>2013-8-18T8:48:52Z</time></trkpt>
<trkpt lat="46.475300789" lon="6.808111668"><ele></ele><time>2013-8-18T8:48:55Z</time></trkpt>
<trkpt lat="46.475150585" lon="6.807596684"><ele></ele><time>2013-8-18T8:48:58Z</time></trkpt>
<trkpt lat="46.474850178" lon="6.807553768"><ele></ele><time>2013-8-18T8:49:1Z</time></trkpt>
<trkpt lat="46.474893093" lon="6.807231903"><ele></ele><time>2013-8-18T8:49:4Z</time></trkpt>
<trkpt lat="46.475150585" lon="6.805880070"><ele></ele><time>2013-8-18T8:49:7Z</time></trkpt>
<trkpt lat="46.475365162" lon="6.804957390"><ele></ele><time>2013-8-18T8:49:10Z</time></trkpt>
<trkpt lat="46.475687027" lon="6.803863049"><ele></ele><time>2013-8-18T8:49:13Z</time></trkpt>
<trkpt lat="46.475837231" lon="6.803197861"><ele></ele><time>2013-8-18T8:49:16Z</time></trkpt>
<trkpt lat="46.475987434" lon="6.802361012"><ele></ele><time>2013-8-18T8:49:19Z</time></trkpt>
<trkpt lat="46.476030350" lon="6.801974773"><ele></ele><time>2013-8-18T8:49:22Z</time></trkpt>
<trkpt lat="46.476137638" lon="6.801481247"><ele></ele><time>2013-8-18T8:49:25Z</time></trkpt>
<trkpt lat="46.476202011" lon="6.800923347"><ele></ele><time>2013-8-18T8:49:28Z</time></trkpt>
<trkpt lat="46.476223469" lon="6.800279617"><ele></ele><time>2013-8-18T8:49:31Z</time></trkpt>
<trkpt lat="46.476352215" lon="6.800000668"><ele></ele><time>2013-8-18T8:49:34Z</time></trkpt>
<trkpt lat="46.476824284" lon="6.799807549"><ele></ele><time>2013-8-18T8:49:37Z</time></trkpt>
<trkpt lat="46.476802826" lon="6.799399853"><ele></ele><time>2013-8-18T8:49:40Z</time></trkpt>
<trkpt lat="46.476480961" lon="6.798777580"><ele></ele><time>2013-8-18T8:49:43Z</time></trkpt>
<trkpt lat="46.476373672" lon="6.798434258"><ele></ele><time>2013-8-18T8:49:46Z</time></trkpt>
<trkpt lat="46.476223469" lon="6.797189713"><ele></ele><time>2013-8-18T8:49:49Z</time></trkpt>
<trkpt lat="46.476223469" lon="6.796846390"><ele></ele><time>2013-8-18T8:49:52Z</time></trkpt>
<trkpt lat="46.476695538" lon="6.795129776"><ele></ele><time>2013-8-18T8:49:55Z</time></trkpt>
<trkpt lat="46.476781368" lon="6.794614792"><ele></ele><time>2013-8-18T8:49:58Z</time></trkpt>
<trkpt lat="46.476910114" lon="6.794078350"><ele></ele><time>2013-8-18T8:50:1Z</time></trkpt>
<trkpt lat="46.477081776" lon="6.793692112"><ele></ele><time>2013-8-18T8:50:4Z</time></trkpt>
<trkpt lat="46.477317810" lon="6.792469025"><ele></ele><time>2013-8-18T8:50:7Z</time></trkpt>
<trkpt lat="46.477489471" lon="6.792018414"><ele></ele><time>2013-8-18T8:50:10Z</time></trkpt>
<trkpt lat="46.477746964" lon="6.791567802"><ele></ele><time>2013-8-18T8:50:13Z</time></trkpt>
<trkpt lat="46.477832794" lon="6.791052818"><ele></ele><time>2013-8-18T8:50:16Z</time></trkpt>
<trkpt lat="46.477961540" lon="6.790645123"><ele></ele><time>2013-8-18T8:50:19Z</time></trkpt>
<trkpt lat="46.477982998" lon="6.790366173"><ele></ele><time>2013-8-18T8:50:22Z</time></trkpt>
<trkpt lat="46.477940083" lon="6.790130138"><ele></ele><time>2013-8-18T8:50:25Z</time></trkpt>
<trkpt lat="46.477961540" lon="6.789593697"><ele></ele><time>2013-8-18T8:50:28Z</time></trkpt>
<trkpt lat="46.478025913" lon="6.789057255"><ele></ele><time>2013-8-18T8:50:31Z</time></trkpt>
<trkpt lat="46.478347778" lon="6.787962914"><ele></ele><time>2013-8-18T8:50:34Z</time></trkpt>
<trkpt lat="46.478304863" lon="6.787898540"><ele></ele><time>2013-8-18T8:50:37Z</time></trkpt>
<trkpt lat="46.478283405" lon="6.787898540"><ele></ele><time>2013-8-18T8:50:40Z</time></trkpt>
<trkpt lat="46.478326321" lon="6.787898540"><ele></ele><time>2013-8-18T8:50:43Z</time></trkpt>
<trkpt lat="46.477274895" lon="6.789658070"><ele></ele><time>2013-8-18T8:50:46Z</time></trkpt>
<trkpt lat="46.477167606" lon="6.789937019"><ele></ele><time>2013-8-18T8:50:49Z</time></trkpt>
<trkpt lat="46.476995945" lon="6.790215969"><ele></ele><time>2013-8-18T8:50:52Z</time></trkpt>
<trkpt lat="46.476845741" lon="6.790173054"><ele></ele><time>2013-8-18T8:50:55Z</time></trkpt>
<trkpt lat="46.476824284" lon="6.789958477"><ele></ele><time>2013-8-18T8:50:58Z</time></trkpt>
<trkpt lat="46.476867199" lon="6.789765358"><ele></ele><time>2013-8-18T8:51:1Z</time></trkpt>
<trkpt lat="46.477081776" lon="6.789400578"><ele></ele><time>2013-8-18T8:51:4Z</time></trkpt>
<trkpt lat="46.477231979" lon="6.789014339"><ele></ele><time>2013-8-18T8:51:7Z</time></trkpt>
<trkpt lat="46.477382183" lon="6.788370609"><ele></ele><time>2013-8-18T8:51:10Z</time></trkpt>
<trkpt lat="46.477553844" lon="6.787984371"><ele></ele><time>2013-8-18T8:51:13Z</time></trkpt>
<trkpt lat="46.477704048" lon="6.787383556"><ele></ele><time>2013-8-18T8:51:16Z</time></trkpt>
<trkpt lat="46.478025913" lon="6.785774231"><ele></ele><time>2013-8-18T8:51:19Z</time></trkpt>
<trkpt lat="46.478068829" lon="6.785001755"><ele></ele><time>2013-8-18T8:51:22Z</time></trkpt>
<trkpt lat="46.478068829" lon="6.784443855"><ele></ele><time>2013-8-18T8:51:25Z</time></trkpt>
<trkpt lat="46.478133202" lon="6.784121990"><ele></ele><time>2013-8-18T8:51:28Z</time></trkpt>
<trkpt lat="46.478347778" lon="6.783671379"><ele></ele><time>2013-8-18T8:51:31Z</time></trkpt>
<trkpt lat="46.479012966" lon="6.782770157"><ele></ele><time>2013-8-18T8:51:34Z</time></trkpt>
<trkpt lat="46.479334831" lon="6.782491207"><ele></ele><time>2013-8-18T8:51:37Z</time></trkpt>
<trkpt lat="46.479635239" lon="6.782169342"><ele></ele><time>2013-8-18T8:51:40Z</time></trkpt>
<trkpt lat="46.479763985" lon="6.781740189"><ele></ele><time>2013-8-18T8:51:43Z</time></trkpt>
<trkpt lat="46.479442120" lon="6.779916286"><ele></ele><time>2013-8-18T8:51:46Z</time></trkpt>
<trkpt lat="46.479334831" lon="6.779572964"><ele></ele><time>2013-8-18T8:51:49Z</time></trkpt>
<trkpt lat="46.479077339" lon="6.779465675"><ele></ele><time>2013-8-18T8:51:52Z</time></trkpt>
<trkpt lat="46.478884220" lon="6.779079437"><ele></ele><time>2013-8-18T8:51:55Z</time></trkpt>
<trkpt lat="46.478734016" lon="6.777298450"><ele></ele><time>2013-8-18T8:51:58Z</time></trkpt>
<trkpt lat="46.478562355" lon="6.776354313"><ele></ele><time>2013-8-18T8:52:1Z</time></trkpt>
<trkpt lat="46.478691101" lon="6.776139736"><ele></ele><time>2013-8-18T8:52:4Z</time></trkpt>
<trkpt lat="46.478948593" lon="6.776161194"><ele></ele><time>2013-8-18T8:52:7Z</time></trkpt>
<trkpt lat="46.479098797" lon="6.775796413"><ele></ele><time>2013-8-18T8:52:10Z</time></trkpt>
<trkpt lat="46.478927135" lon="6.775474548"><ele></ele><time>2013-8-18T8:52:13Z</time></trkpt>
<trkpt lat="46.478905678" lon="6.775345802"><ele></ele><time>2013-8-18T8:52:16Z</time></trkpt>
<trkpt lat="46.478734016" lon="6.775109768"><ele></ele><time>2013-8-18T8:52:19Z</time></trkpt>
<trkpt lat="46.478626728" lon="6.774852276"><ele></ele><time>2013-8-18T8:52:22Z</time></trkpt>
<trkpt lat="46.478583813" lon="6.774294376"><ele></ele><time>2013-8-18T8:52:25Z</time></trkpt>
<trkpt lat="46.478583813" lon="6.773564816"><ele></ele><time>2013-8-18T8:52:28Z</time></trkpt>
<trkpt lat="46.478691101" lon="6.773157120"><ele></ele><time>2013-8-18T8:52:31Z</time></trkpt>
<trkpt lat="46.479055882" lon="6.772127151"><ele></ele><time>2013-8-18T8:52:34Z</time></trkpt>
<trkpt lat="46.478948593" lon="6.771719456"><ele></ele><time>2013-8-18T8:52:37Z</time></trkpt>
<trkpt lat="46.478369236" lon="6.770775318"><ele></ele><time>2013-8-18T8:52:40Z</time></trkpt>
<trkpt lat="46.478283405" lon="6.770925522"><ele></ele><time>2013-8-18T8:52:43Z</time></trkpt>
<trkpt lat="46.478068829" lon="6.771676540"><ele></ele><time>2013-8-18T8:52:46Z</time></trkpt>
<trkpt lat="46.477618217" lon="6.772406101"><ele></ele><time>2013-8-18T8:52:49Z</time></trkpt>
<trkpt lat="46.477274895" lon="6.773200035"><ele></ele><time>2013-8-18T8:52:52Z</time></trkpt>
<trkpt lat="46.476931572" lon="6.773757935"><ele></ele><time>2013-8-18T8:52:55Z</time></trkpt>
<trkpt lat="46.476631165" lon="6.774530411"><ele></ele><time>2013-8-18T8:52:58Z</time></trkpt>
<trkpt lat="46.476502419" lon="6.774594784"><ele></ele><time>2013-8-18T8:53:1Z</time></trkpt>
<trkpt lat="46.476652622" lon="6.773929596"><ele></ele><time>2013-8-18T8:53:4Z</time></trkpt>
<trkpt lat="46.476631165" lon="6.773929596"><ele></ele><time>2013-8-18T8:53:7Z</time></trkpt>
<trkpt lat="46.476652622" lon="6.773929596"><ele></ele><time>2013-8-18T8:53:10Z</time></trkpt>
<trkpt lat="46.477017403" lon="6.773049831"><ele></ele><time>2013-8-18T8:53:13Z</time></trkpt>
<trkpt lat="46.477339268" lon="6.771676540"><ele></ele><time>2013-8-18T8:53:16Z</time></trkpt>
<trkpt lat="46.477661133" lon="6.771118641"><ele></ele><time>2013-8-18T8:53:19Z</time></trkpt>
<trkpt lat="46.477940083" lon="6.770281792"><ele></ele><time>2013-8-18T8:53:22Z</time></trkpt>
<trkpt lat="46.477982998" lon="6.770067215"><ele></ele><time>2013-8-18T8:53:25Z</time></trkpt>
<trkpt lat="46.478261948" lon="6.769402027"><ele></ele><time>2013-8-18T8:53:28Z</time></trkpt>
<trkpt lat="46.478476524" lon="6.768307686"><ele></ele><time>2013-8-18T8:53:31Z</time></trkpt>
<trkpt lat="46.478798389" lon="6.767127514"><ele></ele><time>2013-8-18T8:53:34Z</time></trkpt>
<trkpt lat="46.479055882" lon="6.766591072"><ele></ele><time>2013-8-18T8:53:37Z</time></trkpt>
<trkpt lat="46.479377747" lon="6.765711308"><ele></ele><time>2013-8-18T8:53:40Z</time></trkpt>
<trkpt lat="46.479828358" lon="6.764295101"><ele></ele><time>2013-8-18T8:53:43Z</time></trkpt>
<trkpt lat="46.480085850" lon="6.763780117"><ele></ele><time>2013-8-18T8:53:46Z</time></trkpt>
<trkpt lat="46.480493546" lon="6.763200760"><ele></ele><time>2013-8-18T8:53:49Z</time></trkpt>
<trkpt lat="46.480836868" lon="6.762428284"><ele></ele><time>2013-8-18T8:53:52Z</time></trkpt>
<trkpt lat="46.481266022" lon="6.761741638"><ele></ele><time>2013-8-18T8:53:55Z</time></trkpt>
<trkpt lat="46.481652260" lon="6.760926247"><ele></ele><time>2013-8-18T8:53:58Z</time></trkpt>
<trkpt lat="46.482038498" lon="6.760261059"><ele></ele><time>2013-8-18T8:54:1Z</time></trkpt>
<trkpt lat="46.482295990" lon="6.760025024"><ele></ele><time>2013-8-18T8:54:4Z</time></trkpt>
<trkpt lat="46.483175755" lon="6.758995056"><ele></ele><time>2013-8-18T8:54:7Z</time></trkpt>
<trkpt lat="46.483669281" lon="6.758394241"><ele></ele><time>2013-8-18T8:54:10Z</time></trkpt>
<trkpt lat="46.483819485" lon="6.758158207"><ele></ele><time>2013-8-18T8:54:13Z</time></trkpt>
<trkpt lat="46.484270096" lon="6.757729053"><ele></ele><time>2013-8-18T8:54:16Z</time></trkpt>
<trkpt lat="46.484720707" lon="6.757106781"><ele></ele><time>2013-8-18T8:54:19Z</time></trkpt>
<trkpt lat="46.485021114" lon="6.756591797"><ele></ele><time>2013-8-18T8:54:22Z</time></trkpt>
<trkpt lat="46.485342979" lon="6.756141186"><ele></ele><time>2013-8-18T8:54:25Z</time></trkpt>
<trkpt lat="46.485600471" lon="6.755518913"><ele></ele><time>2013-8-18T8:54:28Z</time></trkpt>
<trkpt lat="46.485836506" lon="6.755046844"><ele></ele><time>2013-8-18T8:54:31Z</time></trkpt>
<trkpt lat="46.486222744" lon="6.754639149"><ele></ele><time>2013-8-18T8:54:34Z</time></trkpt>
<trkpt lat="46.486501694" lon="6.754403114"><ele></ele><time>2013-8-18T8:54:37Z</time></trkpt>
<trkpt lat="46.486845016" lon="6.754016876"><ele></ele><time>2013-8-18T8:54:40Z</time></trkpt>
<trkpt lat="46.487402916" lon="6.753029823"><ele></ele><time>2013-8-18T8:54:43Z</time></trkpt>
<trkpt lat="46.487660408" lon="6.752514839"><ele></ele><time>2013-8-18T8:54:46Z</time></trkpt>
<trkpt lat="46.488025188" lon="6.751978397"><ele></ele><time>2013-8-18T8:54:49Z</time></trkpt>
<trkpt lat="46.488626003" lon="6.751549244"><ele></ele><time>2013-8-18T8:54:52Z</time></trkpt>
<trkpt lat="46.488776207" lon="6.751227379"><ele></ele><time>2013-8-18T8:54:55Z</time></trkpt>
<trkpt lat="46.488904953" lon="6.750862598"><ele></ele><time>2013-8-18T8:54:58Z</time></trkpt>
<trkpt lat="46.489012241" lon="6.750690937"><ele></ele><time>2013-8-18T8:55:1Z</time></trkpt>
<trkpt lat="46.489548683" lon="6.750411987"><ele></ele><time>2013-8-18T8:55:4Z</time></trkpt>
<trkpt lat="46.489698887" lon="6.750304699"><ele></ele><time>2013-8-18T8:55:7Z</time></trkpt>
<trkpt lat="46.489741802" lon="6.750218868"><ele></ele><time>2013-8-18T8:55:10Z</time></trkpt>
<trkpt lat="46.489977837" lon="6.750047207"><ele></ele><time>2013-8-18T8:55:13Z</time></trkpt>
<trkpt lat="46.490085125" lon="6.749811172"><ele></ele><time>2013-8-18T8:55:16Z</time></trkpt>
<trkpt lat="46.490299702" lon="6.748931408"><ele></ele><time>2013-8-18T8:55:19Z</time></trkpt>
<trkpt lat="46.490514278" lon="6.748695374"><ele></ele><time>2013-8-18T8:55:22Z</time></trkpt>
<trkpt lat="46.490771770" lon="6.748588085"><ele></ele><time>2013-8-18T8:55:25Z</time></trkpt>
<trkpt lat="46.491158009" lon="6.748309135"><ele></ele><time>2013-8-18T8:55:28Z</time></trkpt>
<trkpt lat="46.491329670" lon="6.748051643"><ele></ele><time>2013-8-18T8:55:31Z</time></trkpt>
<trkpt lat="46.491780281" lon="6.747214794"><ele></ele><time>2013-8-18T8:55:34Z</time></trkpt>
<trkpt lat="46.491844654" lon="6.747043133"><ele></ele><time>2013-8-18T8:55:37Z</time></trkpt>
<trkpt lat="46.491823196" lon="6.747043133"><ele></ele><time>2013-8-18T8:55:40Z</time></trkpt>
<trkpt lat="46.491801739" lon="6.746742725"><ele></ele><time>2013-8-18T8:55:43Z</time></trkpt>
<trkpt lat="46.491758823" lon="6.746635437"><ele></ele><time>2013-8-18T8:55:46Z</time></trkpt>
<trkpt lat="46.491973400" lon="6.745648384"><ele></ele><time>2013-8-18T8:55:49Z</time></trkpt>
<trkpt lat="46.492123604" lon="6.745455265"><ele></ele><time>2013-8-18T8:55:52Z</time></trkpt>
<trkpt lat="46.492037773" lon="6.745326519"><ele></ele><time>2013-8-18T8:55:55Z</time></trkpt>
<trkpt lat="46.491887569" lon="6.745347977"><ele></ele><time>2013-8-18T8:55:58Z</time></trkpt>
<trkpt lat="46.491930485" lon="6.745283604"><ele></ele><time>2013-8-18T8:56:1Z</time></trkpt>
<trkpt lat="46.491951942" lon="6.745347977"><ele></ele><time>2013-8-18T8:56:4Z</time></trkpt>
<trkpt lat="46.491994858" lon="6.745326519"><ele></ele><time>2013-8-18T8:56:7Z</time></trkpt>
<trkpt lat="46.492016315" lon="6.745283604"><ele></ele><time>2013-8-18T8:56:10Z</time></trkpt>
<trkpt lat="46.491909027" lon="6.745369434"><ele></ele><time>2013-8-18T8:56:13Z</time></trkpt>
<trkpt lat="46.491973400" lon="6.745326519"><ele></ele><time>2013-8-18T8:56:16Z</time></trkpt>
<trkpt lat="46.491994858" lon="6.745369434"><ele></ele><time>2013-8-18T8:56:19Z</time></trkpt>
<trkpt lat="46.492187977" lon="6.745412350"><ele></ele><time>2013-8-18T8:56:22Z</time></trkpt>
<trkpt lat="46.492509842" lon="6.745069027"><ele></ele><time>2013-8-18T8:56:25Z</time></trkpt>
<trkpt lat="46.492574215" lon="6.744832993"><ele></ele><time>2013-8-18T8:56:28Z</time></trkpt>
<trkpt lat="46.492445469" lon="6.744296551"><ele></ele><time>2013-8-18T8:56:31Z</time></trkpt>
<trkpt lat="46.492230892" lon="6.744146347"><ele></ele><time>2013-8-18T8:56:34Z</time></trkpt>
<trkpt lat="46.492016315" lon="6.743824482"><ele></ele><time>2013-8-18T8:56:37Z</time></trkpt>
<trkpt lat="46.491823196" lon="6.743695736"><ele></ele><time>2013-8-18T8:56:40Z</time></trkpt>
<trkpt lat="46.491823196" lon="6.743202209"><ele></ele><time>2013-8-18T8:56:43Z</time></trkpt>
<trkpt lat="46.491587162" lon="6.741356850"><ele></ele><time>2013-8-18T8:56:46Z</time></trkpt>
<trkpt lat="46.491501331" lon="6.741034985"><ele></ele><time>2013-8-18T8:56:49Z</time></trkpt>
<trkpt lat="46.491436958" lon="6.740369797"><ele></ele><time>2013-8-18T8:56:52Z</time></trkpt>
<trkpt lat="46.491436958" lon="6.740026474"><ele></ele><time>2013-8-18T8:56:55Z</time></trkpt>
<trkpt lat="46.491200924" lon="6.739404202"><ele></ele><time>2013-8-18T8:56:58Z</time></trkpt>
<trkpt lat="46.491072178" lon="6.739232540"><ele></ele><time>2013-8-18T8:57:1Z</time></trkpt>
<trkpt lat="46.491072178" lon="6.738674641"><ele></ele><time>2013-8-18T8:57:4Z</time></trkpt>
<trkpt lat="46.491265297" lon="6.737494469"><ele></ele><time>2013-8-18T8:57:7Z</time></trkpt>
<trkpt lat="46.491286755" lon="6.736700535"><ele></ele><time>2013-8-18T8:57:10Z</time></trkpt>
<trkpt lat="46.491265297" lon="6.735734940"><ele></ele><time>2013-8-18T8:57:13Z</time></trkpt>
<trkpt lat="46.491136551" lon="6.735348701"><ele></ele><time>2013-8-18T8:57:16Z</time></trkpt>
<trkpt lat="46.490943432" lon="6.734318733"><ele></ele><time>2013-8-18T8:57:19Z</time></trkpt>
<trkpt lat="46.490600109" lon="6.733245850"><ele></ele><time>2013-8-18T8:57:22Z</time></trkpt>
<trkpt lat="46.490471363" lon="6.732473373"><ele></ele><time>2013-8-18T8:57:25Z</time></trkpt>
<trkpt lat="46.490321159" lon="6.731829643"><ele></ele><time>2013-8-18T8:57:28Z</time></trkpt>
<trkpt lat="46.489248276" lon="6.728932858"><ele></ele><time>2013-8-18T8:57:31Z</time></trkpt>
<trkpt lat="46.488990784" lon="6.727924347"><ele></ele><time>2013-8-18T8:57:34Z</time></trkpt>
<trkpt lat="46.488947868" lon="6.727623940"><ele></ele><time>2013-8-18T8:57:37Z</time></trkpt>
<trkpt lat="46.489055157" lon="6.727044582"><ele></ele><time>2013-8-18T8:57:40Z</time></trkpt>
<trkpt lat="46.489140987" lon="6.726744175"><ele></ele><time>2013-8-18T8:57:43Z</time></trkpt>
<trkpt lat="46.488947868" lon="6.726722717"><ele></ele><time>2013-8-18T8:57:46Z</time></trkpt>
<trkpt lat="46.488733292" lon="6.726787090"><ele></ele><time>2013-8-18T8:57:49Z</time></trkpt>
<trkpt lat="46.488668919" lon="6.726722717"><ele></ele><time>2013-8-18T8:57:52Z</time></trkpt>
<trkpt lat="46.488583088" lon="6.726400852"><ele></ele><time>2013-8-18T8:57:55Z</time></trkpt>
<trkpt lat="46.488626003" lon="6.726143360"><ele></ele><time>2013-8-18T8:57:58Z</time></trkpt>
<trkpt lat="46.488454342" lon="6.725327969"><ele></ele><time>2013-8-18T8:58:1Z</time></trkpt>
<trkpt lat="46.488389969" lon="6.725156307"><ele></ele><time>2013-8-18T8:58:4Z</time></trkpt>
<trkpt lat="46.488347054" lon="6.724877357"><ele></ele><time>2013-8-18T8:58:7Z</time></trkpt>
<trkpt lat="46.488325596" lon="6.724019051"><ele></ele><time>2013-8-18T8:58:10Z</time></trkpt>
<trkpt lat="46.488218307" lon="6.723546982"><ele></ele><time>2013-8-18T8:58:13Z</time></trkpt>
<trkpt lat="46.488196850" lon="6.722109318"><ele></ele><time>2013-8-18T8:58:16Z</time></trkpt>
<trkpt lat="46.488153934" lon="6.721658707"><ele></ele><time>2013-8-18T8:58:19Z</time></trkpt>
<trkpt lat="46.488175392" lon="6.721186638"><ele></ele><time>2013-8-18T8:58:22Z</time></trkpt>
<trkpt lat="46.488368511" lon="6.720478535"><ele></ele><time>2013-8-18T8:58:25Z</time></trkpt>
<trkpt lat="46.488711834" lon="6.719813347"><ele></ele><time>2013-8-18T8:58:28Z</time></trkpt>
<trkpt lat="46.488947868" lon="6.719448566"><ele></ele><time>2013-8-18T8:58:31Z</time></trkpt>
<trkpt lat="46.489613056" lon="6.718268394"><ele></ele><time>2013-8-18T8:58:34Z</time></trkpt>
<trkpt lat="46.489956379" lon="6.717839241"><ele></ele><time>2013-8-18T8:58:37Z</time></trkpt>
<trkpt lat="46.490278244" lon="6.717495918"><ele></ele><time>2013-8-18T8:58:40Z</time></trkpt>
<trkpt lat="46.490578651" lon="6.717216969"><ele></ele><time>2013-8-18T8:58:43Z</time></trkpt>
<trkpt lat="46.491243839" lon="6.716208458"><ele></ele><time>2013-8-18T8:58:46Z</time></trkpt>
<trkpt lat="46.491672993" lon="6.715414524"><ele></ele><time>2013-8-18T8:58:49Z</time></trkpt>
<trkpt lat="46.491930485" lon="6.714470387"><ele></ele><time>2013-8-18T8:58:52Z</time></trkpt>
<trkpt lat="46.492037773" lon="6.713247299"><ele></ele><time>2013-8-18T8:58:55Z</time></trkpt>
<trkpt lat="46.492338181" lon="6.712625027"><ele></ele><time>2013-8-18T8:58:58Z</time></trkpt>
<trkpt lat="46.492853165" lon="6.712067127"><ele></ele><time>2013-8-18T8:59:1Z</time></trkpt>
<trkpt lat="46.493389606" lon="6.711080074"><ele></ele><time>2013-8-18T8:59:4Z</time></trkpt>
<trkpt lat="46.493818760" lon="6.710672379"><ele></ele><time>2013-8-18T8:59:7Z</time></trkpt>
<trkpt lat="46.494269371" lon="6.710436344"><ele></ele><time>2013-8-18T8:59:10Z</time></trkpt>
<trkpt lat="46.494333744" lon="6.710350513"><ele></ele><time>2013-8-18T8:59:13Z</time></trkpt>
<trkpt lat="46.494441032" lon="6.710264683"><ele></ele><time>2013-8-18T8:59:16Z</time></trkpt>
<trkpt lat="46.494634151" lon="6.709985733"><ele></ele><time>2013-8-18T8:59:19Z</time></trkpt>
<trkpt lat="46.494934559" lon="6.709363461"><ele></ele><time>2013-8-18T8:59:22Z</time></trkpt>
<trkpt lat="46.494977474" lon="6.709191799"><ele></ele><time>2013-8-18T8:59:25Z</time></trkpt>
<trkpt lat="46.494848728" lon="6.708977222"><ele></ele><time>2013-8-18T8:59:28Z</time></trkpt>
<trkpt lat="46.494677067" lon="6.708998680"><ele></ele><time>2013-8-18T8:59:31Z</time></trkpt>
<trkpt lat="46.494419575" lon="6.709363461"><ele></ele><time>2013-8-18T8:59:34Z</time></trkpt>
<trkpt lat="46.494441032" lon="6.709449291"><ele></ele><time>2013-8-18T8:59:37Z</time></trkpt>
</trkseg></trk></gpx>